Iberica Hav — C6YI3 — position and weather

sailwx.info

Track history (hours):
 
Tides and Currents Weather Stations Pressure Air Temp Water Temp Dewpoint Dewpoint Depression Visibility Wind Speed Wind Dir Waves Ship Positions

Iberica Hav

Last reported at 2016-Feb-13 12:33 UTC. Time now 2016-Feb-13 13:01 UTC.
Position N 51°41' E 001°08'.

Length 88 m; draft 3.5 m.

Type: Cargo ship. MMSI: 311034400.

Date/timePositionNaut miles runAvg speedWind from/ knotsBaromVisibWave heightAir tempDewpointWater temp
2016-Feb-13 12:33N 51°41' E 001°08'1211.7
2016-Feb-13 11:33N 51°47' E 001°24'5 5.3
2016-Feb-13 10:31N 51°50' E 001°31'0 0.1
2016-Feb-13 09:31N 51°50' E 001°31'0 0.1
2016-Feb-13 08:31N 51°50' E 001°31'0 0.0
2016-Feb-13 07:31N 51°50' E 001°31'0 0.0
2016-Feb-13 06:31N 51°50' E 001°31'0 0.0
2016-Feb-13 05:31N 51°50' E 001°31'5 5.6
2016-Feb-13 04:34N 51°49' E 001°39'8 8.1
2016-Feb-13 03:34N 51°41' E 001°43'8 8.4
2016-Feb-13 02:34N 51°32' E 001°43'8 8.3
2016-Feb-13 01:34N 51°24' E 001°43'8 7.8
2016-Feb-13 00:33N 51°16' E 001°42'7 7.2
2016-Feb-12 23:33N 51°09' E 001°44'5 5.0
2016-Feb-12 22:33N 51°05' E 001°39'5 4.9
2016-Feb-12 21:33N 51°01' E 001°35'6 5.8
2016-Feb-12 20:33N 50°56' E 001°31'89 8.8
2016-Feb-12 10:24N 49°45' E 000°05'8 9.9
2016-Feb-12 09:34N 49°38' W 000°02'9 8.5
2016-Feb-12 08:33N 49°30' W 000°06'10 9.8
2016-Feb-12 07:34N 49°26' E 000°07'1312.8
2016-Feb-12 06:34N 49°28' E 000°27'12 9.1
2016-Feb-12 05:13N 49°31' E 000°45'  
2016-Feb-07 10:33N 49°27' E 000°24'10 9.7
2016-Feb-07 09:33N 49°26' E 000°09'9 9.1
2016-Feb-07 08:33N 49°29' W 000°04'1010.0
2016-Feb-07 07:32N 49°32' W 000°19'  
2016-Feb-04 19:32N 54°05' W 005°33'10 9.7
2016-Feb-04 18:32N 54°14' W 005°28'10 9.9
2016-Feb-04 17:33N 54°23' W 005°23'1010.4
2016-Feb-04 16:33N 54°33' W 005°26'9 9.5
2016-Feb-04 15:33N 54°42' W 005°33'10 9.6
2016-Feb-04 14:33N 54°40' W 005°50'4 0.6
2016-Feb-04 08:32N 54°37' W 005°53'0 0.0
2016-Feb-04 07:31N 54°37' W 005°53'0 0.0
2016-Feb-04 06:33N 54°37' W 005°53'0 0.0
2016-Feb-04 05:33N 54°37' W 005°53'0 0.0
2016-Feb-04 04:30N 54°37' W 005°53'0 0.0
2016-Feb-04 03:33N 54°37' W 005°53'0 0.0
2016-Feb-04 02:32N 54°37' W 005°53'0 0.0
2016-Feb-04 01:30N 54°37' W 005°53'0 0.0
2016-Feb-04 00:28N 54°37' W 005°53'0 0.0
2016-Feb-03 23:28N 54°37' W 005°53'0 0.0
2016-Feb-03 22:29N 54°37' W 005°53'5 2.8
2016-Feb-03 20:33N 54°41' W 005°48'10 9.7
2016-Feb-03 19:33N 54°42' W 005°31'1010.4
2016-Feb-03 18:33N 54°32' W 005°26'9 9.5
2016-Feb-03 17:33N 54°23' W 005°25'1010.3
2016-Feb-03 16:33N 54°15' W 005°35'1010.4
2016-Feb-03 15:33N 54°08' W 005°49'1110.7
2016-Feb-03 14:33N 54°00' W 006°02'4 4.0
2016-Feb-03 13:33N 54°02' W 006°08'  
Track history (hours):
 
Tides and Currents Weather Stations Pressure Air Temp Water Temp Dewpoint Dewpoint Depression Visibility Wind Speed Wind Dir Waves Ship Positions

Iberica Hav

Last reported at 2016-Feb-13 12:33 UTC. Time now 2016-Feb-13 13:01 UTC.
Position N 51°41' E 001°08'.

Length 88 m; draft 3.5 m.

Type: Cargo ship. MMSI: 311034400.

Date/timePositionNaut miles runAvg speedWind from/ knotsBaromVisibWave heightAir tempDewpointWater temp
2016-Feb-13 12:33N 51°41' E 001°08'1211.7
2016-Feb-13 11:33N 51°47' E 001°24'5 5.3
2016-Feb-13 10:31N 51°50' E 001°31'0 0.1
2016-Feb-13 09:31N 51°50' E 001°31'0 0.1
2016-Feb-13 08:31N 51°50' E 001°31'0 0.0
2016-Feb-13 07:31N 51°50' E 001°31'0 0.0
2016-Feb-13 06:31N 51°50' E 001°31'0 0.0
2016-Feb-13 05:31N 51°50' E 001°31'5 5.6
2016-Feb-13 04:34N 51°49' E 001°39'8 8.1
2016-Feb-13 03:34N 51°41' E 001°43'8 8.4
2016-Feb-13 02:34N 51°32' E 001°43'8 8.3
2016-Feb-13 01:34N 51°24' E 001°43'8 7.8
2016-Feb-13 00:33N 51°16' E 001°42'7 7.2
2016-Feb-12 23:33N 51°09' E 001°44'5 5.0
2016-Feb-12 22:33N 51°05' E 001°39'5 4.9
2016-Feb-12 21:33N 51°01' E 001°35'6 5.8
2016-Feb-12 20:33N 50°56' E 001°31'89 8.8
2016-Feb-12 10:24N 49°45' E 000°05'8 9.9
2016-Feb-12 09:34N 49°38' W 000°02'9 8.5
2016-Feb-12 08:33N 49°30' W 000°06'10 9.8
2016-Feb-12 07:34N 49°26' E 000°07'1312.8
2016-Feb-12 06:34N 49°28' E 000°27'12 9.1
2016-Feb-12 05:13N 49°31' E 000°45'  
2016-Feb-07 10:33N 49°27' E 000°24'10 9.7
2016-Feb-07 09:33N 49°26' E 000°09'9 9.1
2016-Feb-07 08:33N 49°29' W 000°04'1010.0
2016-Feb-07 07:32N 49°32' W 000°19'  
2016-Feb-04 19:32N 54°05' W 005°33'10 9.7
2016-Feb-04 18:32N 54°14' W 005°28'10 9.9
2016-Feb-04 17:33N 54°23' W 005°23'1010.4
2016-Feb-04 16:33N 54°33' W 005°26'9 9.5
2016-Feb-04 15:33N 54°42' W 005°33'10 9.6
2016-Feb-04 14:33N 54°40' W 005°50'4 0.6
2016-Feb-04 08:32N 54°37' W 005°53'0 0.0
2016-Feb-04 07:31N 54°37' W 005°53'0 0.0
2016-Feb-04 06:33N 54°37' W 005°53'0 0.0
2016-Feb-04 05:33N 54°37' W 005°53'0 0.0
2016-Feb-04 04:30N 54°37' W 005°53'0 0.0
2016-Feb-04 03:33N 54°37' W 005°53'0 0.0
2016-Feb-04 02:32N 54°37' W 005°53'0 0.0
2016-Feb-04 01:30N 54°37' W 005°53'0 0.0
2016-Feb-04 00:28N 54°37' W 005°53'0 0.0
2016-Feb-03 23:28N 54°37' W 005°53'0 0.0
2016-Feb-03 22:29N 54°37' W 005°53'5 2.8
2016-Feb-03 20:33N 54°41' W 005°48'10 9.7
2016-Feb-03 19:33N 54°42' W 005°31'1010.4
2016-Feb-03 18:33N 54°32' W 005°26'9 9.5
2016-Feb-03 17:33N 54°23' W 005°25'1010.3
2016-Feb-03 16:33N 54°15' W 005°35'1010.4
2016-Feb-03 15:33N 54°08' W 005°49'1110.7
2016-Feb-03 14:33N 54°00' W 006°02'4 4.0
2016-Feb-03 13:33N 54°02' W 006°08'  

Dump ship's entire track history